Airfield :
LOGIN :

Register | Disclaimer

   EN    FR    IT 

 










Legend :    VFR   Marginal VFR   IFR   Intensive IFR   Very Intensive IFR
Visi :
Ceiling :
>= 8 km
>= 3000ft
5 to 8 km
1000 to 3000 ft
1500m to 5 km
500 to 1000 ft
800 to 1500m
200 to 500 ft
< 800m
< 200 ft
Symbols :   Thunderstorms  Fog  Heavy snow  Heavy precipitations  Wind > 20 kt
SIGMETs :     Misc.  Thunderstorms  Icing  Turbulence  Mountain Waves  Volcanic Ashes






- Airport Elevation : 1 ft


EGCK - Caernarfon

CURRENT METAR :
  • 211550Z VRB02KT 9999 FEW035 06/00 Q0998

EXPIRED METARs :
  • 211520Z 09007G18KT 030V170 9999 FEW036 06/01 Q0999
  • 211450Z 12014KT 090V160 9999 FEW036 06/00 Q0999
  • 211420Z 12019KT 9999 FEW034 06/01 Q0999
  • 211350Z 11016KT 9999 FEW035 07/01 Q0999
  • 211320Z 11016G29KT 9999 FEW035 06/01 Q0999

TAF TAF EGCK
Valid from the 21 at 15:00 until the 22 at 00:00 UTC


211355Z 2115/2124 08009KT 9999 FEW035
TEMPO 2115/2124 11018G28KT
PROB30
TEMPO 2115/2124 BKN012
PROB30
TEMPO 2116/2121 6000 RA



MET'MAP, your aeronautical weather chart ! - Copyright ORBIFLY December 2007 - Disclaimer

ORBIFLY MET'MAP TEAM :

Programming & Development : Alexandra Zaïnal
Concept & Development : Baudouin d'Aumeries
Co-Development & Prog : Marc-Olivier Méhu
Technical & hardware support : Manuel Goepfert

Contact : metmap@orbifly.com




SOURCES & CREDITS :

   NOAA